Time;durP1;ratioP1;P1;durP2;ratioP2;P2;SDS_P1;SDS_P2;PMS_P1;PMS_P2;Temp;Humidity;BMP_temperature;BMP_pressure;BME280_temperature;BME280_humidity;BME280_pressure;Samples;Min_cycle;Max_cycle;Signal;HPM_P1;HPM_P2
2023/07/15 00:01:28;;;;;;;2.83;2.57;;;22.90;67.80;22.20;96210.00;;;;4992766;28;20198;-81
2023/07/15 00:03:56;;;;;;;2.50;2.30;;;22.80;67.70;22.20;96209.00;;;;4980421;28;20203;-81
2023/07/15 00:06:24;;;;;;;2.70;2.50;;;22.80;67.70;22.20;96210.00;;;;4986366;28;20287;-81
2023/07/15 00:08:54;;;;;;;2.10;2.00;;;22.80;67.80;22.10;96214.00;;;;4983922;28;20556;-80
2023/07/15 00:11:29;;;;;;;3.67;2.23;;;22.80;67.90;22.10;96210.00;;;;4972201;28;20199;-80
2023/07/15 00:13:58;;;;;;;3.73;1.80;;;22.70;67.70;22.00;96212.00;;;;4984428;28;20226;-80
2023/07/15 00:16:25;;;;;;;2.50;2.30;;;22.70;67.90;22.00;96210.00;;;;4985140;28;20220;-80
2023/07/15 00:18:52;;;;;;;2.40;2.20;;;22.70;68.10;22.00;96208.00;;;;4987181;28;20218;-80
2023/07/15 00:21:24;;;;;;;2.40;2.20;;;22.60;68.20;21.90;96212.00;;;;4985231;28;20249;-80
2023/07/15 00:23:55;;;;;;;2.57;2.00;;;22.60;68.40;21.90;96217.00;;;;4984137;28;20202;-80
2023/07/15 00:26:29;;;;;;;2.20;1.87;;;22.60;68.50;21.90;96219.00;;;;4983381;28;20252;-80
2023/07/15 00:28:57;;;;;;;6.47;2.60;;;22.50;68.40;21.90;96217.00;;;;4979734;28;20196;-81
2023/07/15 00:31:26;;;;;;;2.60;2.40;;;22.50;68.50;21.80;96207.00;;;;4979969;28;20196;-80
2023/07/15 00:33:53;;;;;;;2.53;2.33;;;22.50;68.70;21.80;96208.00;;;;4980820;28;20582;-80
2023/07/15 00:36:20;;;;;;;2.63;2.40;;;22.50;68.80;21.80;96203.00;;;;4979715;28;20364;-80
2023/07/15 00:38:48;;;;;;;2.87;2.50;;;22.40;68.80;21.80;96214.00;;;;4958932;28;20199;-81
2023/07/15 00:41:21;;;;;;;2.70;2.50;;;22.40;68.90;21.70;96215.00;;;;4981403;28;20242;-80
2023/07/15 00:47:16;;;;;;;2.83;2.43;;;22.40;69.00;21.70;96213.00;;;;4977244;28;20699;-81
2023/07/15 00:49:45;;;;;;;2.47;2.33;;;22.40;68.80;21.70;96219.00;;;;4983486;28;20213;-81
2023/07/15 00:52:20;;;;;;;3.10;2.80;;;22.40;69.20;21.60;96214.00;;;;4982697;28;20673;-81
2023/07/15 00:54:53;;;;;;;3.03;2.83;;;22.30;69.20;21.60;96211.00;;;;4980800;28;20202;-80
2023/07/15 00:57:22;;;;;;;2.40;2.20;;;22.30;69.30;21.60;96210.00;;;;4968811;28;20212;-81
2023/07/15 00:59:58;;;;;;;2.17;2.07;;;22.30;69.40;21.60;96208.00;;;;4970959;28;20283;-81
2023/07/15 01:02:27;;;;;;;2.60;2.40;;;22.20;69.70;21.60;96216.00;;;;4988790;28;20800;-81
2023/07/15 01:04:54;;;;;;;2.77;2.60;;;22.20;69.70;21.60;96213.00;;;;4977882;28;20255;-81
2023/07/15 01:07:21;;;;;;;3.07;2.87;;;22.20;69.80;21.50;96216.00;;;;4980663;28;20243;-81
2023/07/15 01:09:50;;;;;;;2.80;2.60;;;22.20;69.70;21.50;96205.00;;;;4987325;28;20629;-81
2023/07/15 01:12:18;;;;;;;3.80;2.50;;;22.20;69.60;21.50;96212.00;;;;4976442;28;20412;-81
2023/07/15 01:14:45;;;;;;;3.17;2.80;;;22.10;69.60;21.40;96213.00;;;;4981251;28;20222;-81
2023/07/15 01:17:19;;;;;;;3.20;2.40;;;22.10;69.60;21.40;96209.00;;;;4981371;28;20223;-80
2023/07/15 01:19:49;;;;;;;2.90;2.50;;;22.10;69.50;21.30;96203.00;;;;4973041;28;20208;-80
2023/07/15 01:22:18;;;;;;;5.03;2.63;;;22.00;70.40;21.30;96205.00;;;;4964349;28;20196;-80
2023/07/15 01:24:48;;;;;;;2.80;2.33;;;22.00;69.80;21.30;96199.00;;;;4979549;28;20206;-80
2023/07/15 01:27:16;;;;;;;2.70;2.50;;;22.00;69.90;21.30;96202.00;;;;4973997;28;20211;-81
2023/07/15 01:29:44;;;;;;;2.97;2.77;;;21.90;69.90;21.20;96202.00;;;;4966038;28;20200;-80
2023/07/15 01:32:11;;;;;;;2.43;2.33;;;21.90;70.00;21.20;96205.00;;;;4982614;28;20215;-81
2023/07/15 01:34:39;;;;;;;2.80;2.60;;;21.90;70.00;21.20;96205.00;;;;4971147;28;20290;-81
2023/07/15 01:37:07;;;;;;;2.63;2.40;;;21.80;70.10;21.10;96205.00;;;;4963920;28;20222;-80
2023/07/15 01:39:35;;;;;;;2.77;2.57;;;21.80;70.20;21.10;96206.00;;;;4980042;28;20218;-80
2023/07/15 01:42:03;;;;;;;4.50;2.37;;;21.80;70.30;21.10;96207.00;;;;4971565;28;20200;-80
2023/07/15 01:44:31;;;;;;;2.23;2.10;;;21.80;70.40;21.00;96214.00;;;;4977222;28;20210;-80
2023/07/15 01:46:58;;;;;;;2.83;2.63;;;21.80;70.70;21.00;96210.00;;;;4981402;28;20222;-80
2023/07/15 01:49:25;;;;;;;3.13;2.90;;;21.70;70.80;21.00;96205.00;;;;4971367;28;20214;-80
2023/07/15 01:51:52;;;;;;;3.30;2.87;;;21.70;71.80;21.00;96203.00;;;;4979648;28;20196;-80
2023/07/15 01:54:19;;;;;;;4.03;2.97;;;21.70;71.30;21.00;96205.00;;;;4981889;28;20227;-80
2023/07/15 01:56:46;;;;;;;2.90;2.60;;;21.70;71.40;20.90;96200.00;;;;4980862;28;20689;-80
2023/07/15 01:59:17;;;;;;;3.13;2.93;;;21.70;71.60;20.90;96199.00;;;;4978825;28;20199;-80
2023/07/15 02:01:44;;;;;;;2.90;2.70;;;21.60;71.70;20.90;96212.00;;;;4976423;28;20656;-80
2023/07/15 02:04:12;;;;;;;2.73;2.40;;;21.60;71.80;20.90;96212.00;;;;4979435;28;20200;-81
2023/07/15 02:06:39;;;;;;;2.80;2.60;;;21.60;71.80;20.90;96209.00;;;;4981391;28;20282;-80
2023/07/15 02:09:07;;;;;;;2.53;2.33;;;21.60;71.70;20.90;96205.00;;;;4995920;28;20191;-80
2023/07/15 02:11:35;;;;;;;4.47;2.70;;;21.60;71.60;20.90;96205.00;;;;4972879;28;20212;-80
2023/07/15 02:14:02;;;;;;;2.90;2.53;;;21.60;71.60;20.90;96213.00;;;;4980378;28;20546;-80
2023/07/15 02:16:31;;;;;;;2.60;2.40;;;21.60;71.50;20.90;96211.00;;;;4978484;28;20238;-80
2023/07/15 02:18:59;;;;;;;2.60;2.40;;;21.50;71.40;20.80;96206.00;;;;4972876;28;20226;-80
2023/07/15 02:21:27;;;;;;;2.47;2.27;;;21.50;71.40;20.80;96208.00;;;;4983972;28;20199;-80
2023/07/15 02:23:55;;;;;;;3.20;2.63;;;21.50;71.40;20.80;96199.00;;;;4982197;28;20196;-80
2023/07/15 02:26:22;;;;;;;3.00;2.30;;;21.50;71.50;20.80;96204.00;;;;4973624;28;20229;-80
2023/07/15 02:28:49;;;;;;;2.70;2.47;;;21.50;71.60;20.70;96196.00;;;;4982399;28;20192;-80
2023/07/15 02:31:17;;;;;;;2.40;2.20;;;21.40;72.40;20.70;96202.00;;;;4979271;28;20205;-79
2023/07/15 02:33:48;;;;;;;4.73;2.40;;;21.40;71.70;20.70;96202.00;;;;4970867;28;20289;-80
2023/07/15 02:36:16;;;;;;;2.67;2.47;;;21.40;71.70;20.60;96200.00;;;;4982796;28;21009;-80
2023/07/15 02:38:43;;;;;;;2.77;2.57;;;21.40;71.90;20.60;96195.00;;;;4979384;28;20211;-80
2023/07/15 02:41:11;;;;;;;2.37;2.23;;;21.40;72.10;20.60;96198.00;;;;4982515;28;20198;-80
2023/07/15 02:43:38;;;;;;;2.70;2.50;;;21.30;72.10;20.60;96195.00;;;;4985432;28;20265;-81
2023/07/15 02:46:06;;;;;;;2.77;2.57;;;21.30;72.30;20.60;96202.00;;;;4978570;28;20215;-80
2023/07/15 02:48:33;;;;;;;2.30;2.20;;;21.30;72.40;20.60;96196.00;;;;4985584;28;20207;-80
2023/07/15 02:51:02;;;;;;;2.53;2.33;;;21.30;72.50;20.60;96187.00;;;;5000006;28;20278;-80
2023/07/15 02:53:31;;;;;;;3.17;2.87;;;21.20;72.60;20.60;96192.00;;;;4985602;28;20191;-80
2023/07/15 02:55:58;;;;;;;2.90;2.70;;;21.20;72.90;20.60;96195.00;;;;4982823;28;20285;-80
2023/07/15 02:58:25;;;;;;;3.43;2.40;;;21.20;73.00;20.60;96195.00;;;;4983113;28;20191;-80
2023/07/15 03:00:53;;;;;;;2.77;2.57;;;21.30;73.00;20.60;96197.00;;;;4982028;28;20208;-80
2023/07/15 03:03:21;;;;;;;2.97;2.47;;;21.30;73.00;20.50;96200.00;;;;4983069;28;20722;-80
2023/07/15 03:05:49;;;;;;;2.80;2.60;;;21.20;73.80;20.50;96197.00;;;;4977788;28;20230;-80
2023/07/15 03:08:18;;;;;;;2.53;2.33;;;21.20;73.10;20.50;96204.00;;;;4975891;28;20195;-80
2023/07/15 03:10:49;;;;;;;3.60;3.10;;;21.20;73.10;20.50;96214.00;;;;4984784;28;20195;-80
2023/07/15 03:13:16;;;;;;;3.07;2.83;;;21.20;73.30;20.50;96214.00;;;;4971318;28;20226;-80
2023/07/15 03:15:45;;;;;;;2.70;2.47;;;21.20;73.50;20.50;96202.00;;;;4976673;28;20211;-80
2023/07/15 03:18:12;;;;;;;4.77;3.10;;;21.20;73.70;20.50;96208.00;;;;4976872;28;20237;-80
2023/07/15 03:20:39;;;;;;;2.83;2.63;;;21.20;73.80;20.50;96192.00;;;;4976986;28;20199;-80
2023/07/15 03:23:07;;;;;;;3.87;2.90;;;21.20;73.90;20.50;96198.00;;;;4972582;28;20224;-80
2023/07/15 03:25:35;;;;;;;2.80;2.60;;;21.20;73.90;20.50;96204.00;;;;4979359;28;20200;-80
2023/07/15 03:28:03;;;;;;;3.40;3.10;;;21.10;73.80;20.50;96200.00;;;;4981726;28;20210;-80
2023/07/15 03:30:30;;;;;;;3.00;2.80;;;21.10;74.00;20.50;96186.00;;;;4977574;28;20202;-80
2023/07/15 03:32:58;;;;;;;3.60;3.30;;;21.10;74.10;20.50;96187.00;;;;4980373;28;20203;-80
2023/07/15 03:35:25;;;;;;;2.90;2.67;;;21.10;74.10;20.50;96192.00;;;;4982443;28;20286;-80
2023/07/15 03:37:52;;;;;;;2.77;2.57;;;21.10;74.10;20.50;96193.00;;;;4982043;28;20215;-80
2023/07/15 03:40:22;;;;;;;3.07;2.87;;;21.10;74.10;20.40;96204.00;;;;4982772;28;20744;-80
2023/07/15 03:42:51;;;;;;;2.80;2.60;;;21.10;74.10;20.40;96202.00;;;;4983366;28;20242;-80
2023/07/15 03:45:18;;;;;;;2.97;2.70;;;21.10;74.00;20.40;96202.00;;;;4985304;28;20191;-80
2023/07/15 03:47:45;;;;;;;2.33;2.13;;;21.10;74.00;20.40;96205.00;;;;4982687;28;20263;-80
2023/07/15 03:50:12;;;;;;;3.23;2.90;;;21.10;74.10;20.40;96189.00;;;;4983183;28;20213;-80
2023/07/15 03:52:42;;;;;;;2.83;2.40;;;21.10;74.10;20.40;96204.00;;;;4966421;28;20743;-80
2023/07/15 03:55:09;;;;;;;3.10;2.80;;;21.10;74.00;20.40;96197.00;;;;4982499;28;20286;-80
2023/07/15 03:57:38;;;;;;;3.07;2.80;;;21.00;74.10;20.40;96193.00;;;;4988204;28;20309;-80
2023/07/15 04:00:15;;;;;;;3.10;2.80;;;21.10;74.20;20.40;96194.00;;;;4978835;28;20200;-80
2023/07/15 04:02:44;;;;;;;3.07;2.67;;;21.00;74.20;20.40;96201.00;;;;4978667;28;20199;-80
2023/07/15 04:05:13;;;;;;;2.73;2.53;;;21.00;74.30;20.40;96199.00;;;;4984407;28;20211;-80
2023/07/15 04:07:41;;;;;;;3.53;2.63;;;21.00;74.30;20.40;96198.00;;;;4983157;28;20274;-80
2023/07/15 04:10:09;;;;;;;2.50;2.30;;;21.00;74.40;20.30;96203.00;;;;4978889;28;20211;-80
2023/07/15 04:12:36;;;;;;;2.90;2.63;;;21.00;74.40;20.40;96198.00;;;;4982191;28;20563;-80
2023/07/15 04:15:04;;;;;;;3.20;2.90;;;21.00;74.60;20.40;96202.00;;;;4981989;28;20195;-80
2023/07/15 04:17:32;;;;;;;5.23;3.27;;;21.00;74.70;20.30;96197.00;;;;4981459;28;20714;-80
2023/07/15 04:20:00;;;;;;;3.23;3.00;;;21.00;74.80;20.40;96197.00;;;;4977684;28;20684;-80
2023/07/15 04:22:27;;;;;;;3.37;3.17;;;21.00;74.80;20.40;96193.00;;;;4981145;28;20200;-80
2023/07/15 04:24:54;;;;;;;3.17;2.87;;;21.00;75.00;20.40;96192.00;;;;4981133;28;20195;-80
2023/07/15 04:27:21;;;;;;;2.60;2.50;;;21.00;74.90;20.40;96200.00;;;;4975346;28;20247;-80
2023/07/15 04:29:48;;;;;;;2.97;2.67;;;21.00;74.90;20.40;96205.00;;;;4975956;28;20196;-80
2023/07/15 04:32:15;;;;;;;3.10;2.80;;;21.00;75.00;20.40;96207.00;;;;4980682;28;20305;-80
2023/07/15 04:34:49;;;;;;;2.63;2.53;;;21.00;75.10;20.40;96208.00;;;;4976577;28;20264;-80
2023/07/15 04:37:17;;;;;;;2.73;2.53;;;21.00;75.30;20.40;96212.00;;;;4992300;28;20790;-80
2023/07/15 04:39:44;;;;;;;2.93;2.73;;;21.00;75.30;20.40;96206.00;;;;4981445;28;20282;-80
2023/07/15 04:42:11;;;;;;;2.90;2.70;;;21.00;75.40;20.40;96197.00;;;;4972877;28;20317;-80
2023/07/15 04:44:38;;;;;;;2.93;2.70;;;21.00;75.60;20.40;96204.00;;;;4982002;28;20206;-80
2023/07/15 04:47:08;;;;;;;2.80;2.60;;;21.00;75.80;20.40;96204.00;;;;4984064;28;20218;-80
2023/07/15 04:49:36;;;;;;;3.40;2.60;;;21.10;75.90;20.50;96204.00;;;;4978870;28;20208;-80
2023/07/15 04:52:06;;;;;;;2.73;2.47;;;21.10;76.10;20.50;96216.00;;;;4981628;28;20198;-81
2023/07/15 04:54:34;;;;;;;2.53;2.33;;;21.10;76.30;20.50;96219.00;;;;4983089;28;20585;-80
2023/07/15 04:57:02;;;;;;;2.70;2.50;;;21.10;77.20;20.50;96218.00;;;;4980263;28;21481;-80
2023/07/15 04:59:29;;;;;;;2.70;2.50;;;21.20;76.70;20.60;96233.00;;;;4983185;28;20572;-80
2023/07/15 05:01:56;;;;;;;2.53;2.30;;;21.20;76.80;20.60;96231.00;;;;4988817;28;20200;-80
2023/07/15 05:04:23;;;;;;;2.77;2.50;;;21.20;76.90;20.70;96232.00;;;;4978175;28;20282;-80
2023/07/15 05:06:51;;;;;;;2.97;2.77;;;21.30;77.20;20.70;96240.00;;;;4982919;28;20223;-80
2023/07/15 05:09:20;;;;;;;2.70;2.50;;;21.30;77.30;20.80;96236.00;;;;4980414;28;20200;-80
2023/07/15 05:11:47;;;;;;;2.60;2.40;;;21.30;77.60;20.80;96241.00;;;;4975573;28;20203;-80
2023/07/15 05:14:16;;;;;;;3.00;2.70;;;21.40;77.70;20.90;96235.00;;;;4980122;28;20348;-81
2023/07/15 05:16:45;;;;;;;3.90;3.20;;;21.40;77.80;20.90;96236.00;;;;4980905;28;20641;-80
2023/07/15 05:19:12;;;;;;;3.40;3.10;;;21.50;78.00;21.00;96241.00;;;;4981501;28;20258;-80
2023/07/15 05:21:39;;;;;;;3.17;2.63;;;21.50;78.10;21.10;96231.00;;;;4982498;28;20664;-80
2023/07/15 05:24:07;;;;;;;2.87;2.67;;;21.60;78.20;21.20;96236.00;;;;4997186;28;20195;-81
2023/07/15 05:26:36;;;;;;;3.23;2.93;;;21.70;78.40;21.20;96231.00;;;;4983399;28;20595;-80
2023/07/15 05:29:07;;;;;;;2.93;2.73;;;21.70;78.50;21.30;96230.00;;;;4983308;28;20295;-80
2023/07/15 05:31:34;;;;;;;3.50;3.30;;;21.80;78.60;21.40;96233.00;;;;4983906;28;20203;-81
2023/07/15 05:34:02;;;;;;;2.57;2.37;;;21.80;78.60;21.40;96229.00;;;;4978376;28;20195;-80
2023/07/15 05:36:29;;;;;;;2.47;2.37;;;21.90;78.70;21.50;96229.00;;;;4979597;28;20222;-80
2023/07/15 05:38:56;;;;;;;3.63;2.50;;;22.00;78.80;21.60;96233.00;;;;4985060;28;20559;-80
2023/07/15 05:41:23;;;;;;;2.50;2.30;;;22.00;78.70;21.70;96230.00;;;;4984723;28;20286;-80
2023/07/15 05:43:52;;;;;;;2.53;2.33;;;22.10;78.80;21.70;96232.00;;;;4982187;28;20200;-80
2023/07/15 05:46:19;;;;;;;2.77;2.57;;;22.20;79.00;21.80;96233.00;;;;4983550;28;20207;-81
2023/07/15 05:48:47;;;;;;;2.60;2.40;;;22.30;78.90;21.90;96235.00;;;;4975272;28;20196;-80
2023/07/15 05:51:14;;;;;;;2.27;2.03;;;22.40;78.90;22.10;96231.00;;;;4972737;28;20207;-80
2023/07/15 05:53:43;;;;;;;2.87;1.93;;;22.50;78.90;22.20;96227.00;;;;4976621;28;20267;-80
2023/07/15 05:56:10;;;;;;;2.13;2.03;;;22.60;78.90;22.30;96234.00;;;;4985307;28;20219;-80
2023/07/15 05:58:37;;;;;;;2.53;2.10;;;22.70;78.90;22.30;96235.00;;;;4980396;28;20299;-80
2023/07/15 06:01:06;;;;;;;2.27;2.03;;;22.80;78.70;22.50;96231.00;;;;4986816;28;20298;-80
2023/07/15 06:03:33;;;;;;;2.30;2.07;;;22.80;78.50;22.60;96236.00;;;;4980000;28;20199;-80
2023/07/15 06:06:04;;;;;;;2.27;2.17;;;22.90;78.40;22.60;96230.00;;;;4980426;28;20216;-80
2023/07/15 06:08:31;;;;;;;2.30;2.10;;;23.00;78.30;22.70;96234.00;;;;4982106;28;20228;-80
2023/07/15 06:10:59;;;;;;;2.37;2.00;;;23.10;78.00;22.90;96240.00;;;;4982261;28;20437;-80
2023/07/15 06:13:27;;;;;;;3.07;2.30;;;23.20;77.90;23.00;96239.00;;;;4980160;28;20202;-80
2023/07/15 06:15:54;;;;;;;2.03;1.90;;;23.30;77.70;23.10;96229.00;;;;4974558;28;20211;-84
2023/07/15 06:18:24;;;;;;;2.23;2.03;;;23.40;77.50;23.20;96237.00;;;;4970650;28;20255;-83
2023/07/15 06:20:52;;;;;;;3.20;2.00;;;23.50;77.40;23.30;96237.00;;;;4969292;28;20783;-83
2023/07/15 06:23:19;;;;;;;2.03;1.93;;;23.60;77.50;23.40;96232.00;;;;4973776;28;20693;-82
2023/07/15 06:25:46;;;;;;;2.10;2.00;;;23.70;77.30;23.60;96240.00;;;;4975054;28;20211;-81
2023/07/15 06:28:13;;;;;;;2.90;2.10;;;23.80;77.10;23.70;96243.00;;;;4977268;28;20214;-81
2023/07/15 06:30:40;;;;;;;2.00;1.90;;;24.00;77.10;23.90;96232.00;;;;4973976;28;20196;-81
2023/07/15 06:33:08;;;;;;;2.07;1.97;;;24.10;76.80;24.00;96229.00;;;;4978487;28;20195;-82
2023/07/15 06:35:36;;;;;;;2.10;2.00;;;24.20;76.70;24.10;96223.00;;;;4978611;28;20199;-82
2023/07/15 06:38:05;;;;;;;2.13;1.90;;;24.30;76.50;24.30;96221.00;;;;4976310;28;20233;-81
2023/07/15 06:40:32;;;;;;;1.93;1.83;;;24.50;76.30;24.40;96228.00;;;;4977847;28;20648;-81
2023/07/15 06:43:02;;;;;;;1.80;1.70;;;24.60;76.40;24.50;96220.00;;;;4973446;28;20199;-82
2023/07/15 06:45:34;;;;;;;2.23;2.00;;;24.70;76.20;24.70;96229.00;;;;4977390;28;20261;-82
2023/07/15 06:48:01;;;;;;;2.00;1.90;;;24.80;75.20;24.80;96217.00;;;;4976401;28;20203;-82
2023/07/15 06:50:29;;;;;;;6.40;2.57;;;25.00;75.60;24.90;96217.00;;;;4974323;28;20201;-82
2023/07/15 06:52:58;;;;;;;2.17;2.00;;;25.10;75.70;25.10;96219.00;;;;4973836;28;20203;-82
2023/07/15 06:55:25;;;;;;;4.07;2.30;;;25.20;75.20;25.20;96214.00;;;;4981545;28;20587;-81
2023/07/15 06:57:52;;;;;;;2.30;2.10;;;25.30;75.10;25.30;96216.00;;;;4976948;28;20219;-82
2023/07/15 07:00:21;;;;;;;1.90;1.80;;;25.50;74.40;25.50;96216.00;;;;4973771;28;20200;-81
2023/07/15 07:02:49;;;;;;;3.00;1.50;;;25.60;74.30;25.60;96214.00;;;;4976571;28;20231;-82
2023/07/15 07:05:16;;;;;;;1.80;1.70;;;25.70;73.90;25.70;96217.00;;;;4972981;28;20282;-82
2023/07/15 07:07:44;;;;;;;3.40;1.70;;;25.90;73.60;25.90;96213.00;;;;4971512;28;20211;-81
2023/07/15 07:10:13;;;;;;;1.80;1.70;;;26.00;73.90;26.10;96212.00;;;;4980153;28;20198;-82
2023/07/15 07:12:40;;;;;;;1.90;1.67;;;26.20;73.20;26.20;96213.00;;;;4973934;28;20202;-82
2023/07/15 07:15:09;;;;;;;1.33;1.23;;;26.30;73.40;26.40;96208.00;;;;4972357;28;20215;-81
2023/07/15 07:17:37;;;;;;;1.83;1.73;;;26.50;73.50;26.60;96206.00;;;;4968797;28;20314;-82
2023/07/15 07:20:04;;;;;;;1.70;1.60;;;26.60;73.50;26.70;96202.00;;;;4973985;28;20199;-82
2023/07/15 07:22:31;;;;;;;1.80;1.70;;;26.80;72.30;26.90;96199.00;;;;4975788;28;20355;-81
2023/07/15 07:24:59;;;;;;;1.40;1.30;;;27.00;71.80;27.10;96203.00;;;;4978635;28;20223;-79
2023/07/15 07:27:27;;;;;;;1.48;1.40;;;27.10;71.80;27.30;96200.00;;;;4978174;28;20228;-82
2023/07/15 07:29:58;;;;;;;3.90;1.60;;;27.30;71.60;27.50;96202.00;;;;4978640;28;20202;-82
2023/07/15 07:32:25;;;;;;;1.52;1.42;;;27.60;72.00;27.70;96206.00;;;;4979813;28;20292;-83
2023/07/15 07:34:52;;;;;;;1.67;1.58;;;27.70;70.90;27.90;96200.00;;;;4973433;28;20191;-82
2023/07/15 07:37:19;;;;;;;4.60;1.70;;;27.90;71.20;28.00;96199.00;;;;4977977;28;20670;-83
2023/07/15 07:39:46;;;;;;;1.80;1.65;;;28.00;70.50;28.20;96203.00;;;;4975408;28;20634;-84
2023/07/15 07:42:14;;;;;;;1.80;1.70;;;28.20;71.00;28.30;96200.00;;;;4973990;28;20200;-83
2023/07/15 07:44:43;;;;;;;1.50;1.40;;;28.40;71.10;28.50;96204.00;;;;4972777;28;20222;-84
2023/07/15 07:47:10;;;;;;;1.50;1.40;;;28.50;70.20;28.60;96203.00;;;;4985884;28;20726;-84
2023/07/15 07:49:38;;;;;;;1.40;1.30;;;28.70;68.60;28.70;96203.00;;;;4972242;28;20294;-81
2023/07/15 07:52:06;;;;;;;1.48;1.30;;;28.80;68.20;28.90;96199.00;;;;4976412;28;20195;-81
2023/07/15 07:54:33;;;;;;;1.48;1.27;;;29.00;68.20;29.00;96203.00;;;;4975695;28;20286;-81
2023/07/15 07:57:00;;;;;;;1.30;1.20;;;29.10;68.40;29.20;96207.00;;;;4975324;28;20279;-81
2023/07/15 07:59:27;;;;;;;1.48;1.30;;;29.30;68.40;29.30;96206.00;;;;4974674;28;20199;-82
2023/07/15 08:01:56;;;;;;;1.48;1.40;;;29.40;68.20;29.50;96204.00;;;;4973931;28;20188;-81
2023/07/15 08:04:23;;;;;;;1.60;1.50;;;29.50;68.50;29.60;96218.00;;;;4976335;28;20275;-80
2023/07/15 08:06:50;;;;;;;1.60;1.50;;;29.60;68.60;29.70;96213.00;;;;4973200;28;20211;-81
2023/07/15 08:09:17;;;;;;;2.25;1.70;;;29.80;68.20;29.90;96206.00;;;;4979837;28;20234;-81
2023/07/15 08:11:45;;;;;;;1.58;1.48;;;29.90;68.20;30.00;96205.00;;;;4979073;28;20199;-81
2023/07/15 08:14:12;;;;;;;1.98;1.67;;;30.10;66.90;30.10;96206.00;;;;4972036;28;20195;-82
2023/07/15 08:16:40;;;;;;;2.08;1.65;;;30.20;67.10;30.30;96202.00;;;;4984612;28;20727;-80
2023/07/15 08:19:10;;;;;;;1.38;1.38;;;30.30;66.20;30.50;96204.00;;;;4976233;28;20215;-84
2023/07/15 08:21:38;;;;;;;1.90;1.40;;;30.50;65.00;30.70;96204.00;;;;4980689;28;20599;-82
2023/07/15 08:24:05;;;;;;;1.08;1.08;;;30.70;64.70;30.80;96205.00;;;;4981135;28;20200;-81
2023/07/15 08:26:32;;;;;;;1.55;1.45;;;30.80;64.40;31.00;96196.00;;;;4976463;28;20215;-82
2023/07/15 08:29:03;;;;;;;1.35;1.25;;;31.00;63.60;31.20;96206.00;;;;4972980;28;20602;-81
2023/07/15 08:31:30;;;;;;;1.65;1.55;;;31.20;63.70;31.40;96198.00;;;;4975825;28;20251;-81
2023/07/15 08:33:59;;;;;;;1.00;1.00;;;31.30;63.10;31.50;96199.00;;;;4976900;28;20205;-82
2023/07/15 08:36:27;;;;;;;1.60;1.45;;;31.50;62.30;31.70;96198.00;;;;4980576;28;20223;-83
2023/07/15 08:38:55;;;;;;;1.10;1.00;;;31.60;61.40;31.80;96191.00;;;;4970212;28;20225;-83
2023/07/15 08:41:25;;;;;;;1.00;1.00;;;31.80;59.90;32.00;96193.00;;;;4976512;28;20221;-83
2023/07/15 08:43:52;;;;;;;1.13;1.02;;;32.00;59.80;32.20;96191.00;;;;4976514;28;20195;-81
2023/07/15 08:46:27;;;;;;;1.05;1.05;;;32.10;59.30;32.40;96180.00;;;;4985947;28;20219;-81
2023/07/15 08:48:56;;;;;;;1.73;1.52;;;32.20;56.40;32.60;96186.00;;;;4973168;28;20199;-82
2023/07/15 08:51:30;;;;;;;0.93;0.93;;;32.40;57.90;32.70;96187.00;;;;4976720;28;20198;-83
2023/07/15 08:54:00;;;;;;;1.20;0.95;;;32.60;57.80;32.90;96179.00;;;;4979718;28;20249;-79
2023/07/15 08:59:12;;;;;;;0.93;0.93;;;33.00;57.50;33.20;96178.00;;;;4974424;28;20234;-83
2023/07/15 09:01:39;;;;;;;1.35;1.23;;;33.10;57.10;33.40;96178.00;;;;4986533;28;20586;-83
2023/07/15 09:04:06;;;;;;;1.20;1.10;;;33.20;56.30;33.50;96174.00;;;;4978241;28;20200;-82
2023/07/15 09:06:43;;;;;;;1.55;0.90;;;33.40;56.50;33.60;96176.00;;;;4978751;28;20247;-82
2023/07/15 09:09:13;;;;;;;1.00;1.00;;;33.50;52.90;33.70;96184.00;;;;4985460;28;20234;-82
2023/07/15 09:11:43;;;;;;;0.95;0.95;;;33.70;54.70;33.90;96189.00;;;;4984811;28;20262;-82
2023/07/15 09:14:18;;;;;;;2.70;1.38;;;33.80;54.40;34.00;96190.00;;;;4981263;28;20227;-82
2023/07/15 09:16:45;;;;;;;0.82;0.82;;;34.00;52.00;34.20;96186.00;;;;4984154;28;20236;-83
2023/07/15 09:19:13;;;;;;;0.77;0.77;;;34.10;53.30;34.30;96188.00;;;;4984193;28;20704;-83
2023/07/15 09:21:53;;;;;;;1.00;0.88;;;34.30;53.20;34.50;96177.00;;;;4980213;28;20209;-83
2023/07/15 09:24:23;;;;;;;0.90;0.90;;;34.40;49.90;34.60;96179.00;;;;4992535;28;20235;-84
2023/07/15 09:26:54;;;;;;;0.95;0.95;;;34.50;52.40;34.70;96182.00;;;;4981934;28;20242;-84
2023/07/15 09:29:22;;;;;;;1.98;0.80;;;34.70;51.70;34.80;96176.00;;;;4980602;28;20199;-84
2023/07/15 09:31:49;;;;;;;0.68;0.68;;;34.80;51.60;35.00;96182.00;;;;4981519;28;20647;-82
2023/07/15 09:34:16;;;;;;;1.13;0.90;;;34.90;50.60;35.10;96169.00;;;;4977532;28;20195;-83
2023/07/15 09:36:46;;;;;;;0.88;0.80;;;35.10;49.90;35.30;96166.00;;;;4972809;28;20219;-82
2023/07/15 09:39:14;;;;;;;0.77;0.70;;;35.20;49.00;35.40;96161.00;;;;4980299;28;20585;-82
2023/07/15 09:41:42;;;;;;;0.80;0.80;;;35.40;49.60;35.60;96167.00;;;;4977394;28;20206;-82
2023/07/15 09:44:11;;;;;;;0.82;0.82;;;35.60;49.00;35.70;96162.00;;;;4976820;28;20720;-82
2023/07/15 09:46:41;;;;;;;0.88;0.80;;;35.70;48.90;35.90;96160.00;;;;4980841;28;20215;-82
2023/07/15 09:49:08;;;;;;;2.15;0.90;;;35.90;48.40;36.00;96162.00;;;;4979662;28;20199;-83
2023/07/15 09:51:37;;;;;;;0.70;0.70;;;36.10;48.20;36.20;96160.00;;;;4982000;28;20241;-83
2023/07/15 09:54:07;;;;;;;2.13;0.70;;;36.30;47.80;36.40;96163.00;;;;4984379;28;20203;-83
2023/07/15 09:56:39;;;;;;;0.68;0.68;;;36.60;47.30;36.50;96162.00;;;;4984306;28;20306;-83
2023/07/15 09:59:16;;;;;;;0.80;0.80;;;36.70;47.00;36.70;96155.00;;;;4984030;28;20215;-83
2023/07/15 10:01:49;;;;;;;0.75;0.75;;;37.00;46.20;36.90;96150.00;;;;4980984;28;20628;-82
2023/07/15 10:04:28;;;;;;;0.90;0.90;;;37.30;45.80;37.10;96154.00;;;;4990913;28;20215;-82
2023/07/15 10:06:57;;;;;;;0.98;0.95;;;37.50;45.90;37.30;96147.00;;;;4986190;28;20211;-82
2023/07/15 10:09:26;;;;;;;1.00;0.70;;;37.80;46.30;37.40;96144.00;;;;4983864;28;20290;-82
2023/07/15 10:11:56;;;;;;;1.63;0.98;;;38.00;44.90;37.60;96146.00;;;;4980875;28;20665;-82
2023/07/15 10:14:26;;;;;;;0.85;0.75;;;38.30;45.10;37.70;96145.00;;;;4981504;28;20230;-82
2023/07/15 10:17:10;;;;;;;1.27;0.80;;;38.50;45.50;37.90;96147.00;;;;4986474;28;20250;-82
2023/07/15 10:19:42;;;;;;;0.90;0.90;;;38.80;42.80;38.10;96143.00;;;;4979653;28;20230;-82
2023/07/15 10:22:11;;;;;;;1.02;0.80;;;39.00;43.20;38.20;96142.00;;;;4962023;28;20206;-82
2023/07/15 10:24:52;;;;;;;1.00;0.90;;;39.20;44.50;38.40;96139.00;;;;4963839;28;20204;-83
2023/07/15 10:27:19;;;;;;;3.50;0.88;;;39.30;43.20;38.50;96144.00;;;;4985846;28;20219;-82
2023/07/15 10:29:47;;;;;;;1.00;0.90;;;39.50;44.40;38.70;96134.00;;;;4980466;28;20202;-82
2023/07/15 10:32:17;;;;;;;0.70;0.70;;;39.60;43.90;38.80;96129.00;;;;4997515;28;20238;-82
2023/07/15 10:34:53;;;;;;;0.60;0.60;;;39.80;42.50;38.90;96133.00;;;;4986986;28;20207;-82
2023/07/15 10:37:21;;;;;;;0.68;0.60;;;39.90;41.80;39.00;96136.00;;;;4990204;28;20223;-82
2023/07/15 10:39:52;;;;;;;0.80;0.80;;;40.00;43.00;39.10;96129.00;;;;4980856;28;20718;-83
2023/07/15 10:42:20;;;;;;;1.38;1.20;;;40.00;41.70;39.20;96130.00;;;;4979225;28;20235;-83
2023/07/15 10:44:55;;;;;;;0.77;0.73;;;40.10;42.60;39.30;96119.00;;;;4980488;28;20634;-83
2023/07/15 10:47:23;;;;;;;0.95;0.80;;;40.20;41.40;39.40;96116.00;;;;4983376;28;20762;-84
2023/07/15 10:49:51;;;;;;;0.77;0.73;;;40.30;42.60;39.50;96129.00;;;;4976430;28;20572;-83
2023/07/15 10:52:21;;;;;;;0.80;0.80;;;40.30;42.10;39.50;96130.00;;;;4978343;28;20227;-83
2023/07/15 10:54:54;;;;;;;0.57;0.57;;;40.30;41.10;39.60;96130.00;;;;4975397;28;20188;-84
2023/07/15 10:57:21;;;;;;;2.47;1.08;;;40.30;41.50;39.60;96133.00;;;;4979134;28;20215;-83
2023/07/15 10:59:48;;;;;;;0.90;0.90;;;40.20;40.60;39.60;96117.00;;;;4976610;28;20298;-83
2023/07/15 11:02:16;;;;;;;0.70;0.70;;;40.10;40.80;39.60;96121.00;;;;4992136;28;20202;-83
2023/07/15 11:04:46;;;;;;;1.33;0.90;;;40.10;41.00;39.50;96124.00;;;;4946246;28;20679;-84
2023/07/15 11:07:15;;;;;;;0.80;0.77;;;40.00;41.10;39.40;96114.00;;;;4984995;28;20212;-82